Time;durP1;ratioP1;P1;durP2;ratioP2;P2;SDS_P1;SDS_P2;PMS_P1;PMS_P2;Temp;Humidity;BMP_temperature;BMP_pressure;BME280_temperature;BME280_humidity;BME280_pressure;Samples;Min_cycle;Max_cycle;Signal;HPM_P1;HPM_P2
2022/01/28 00:00:50;;;;;;;11.80;2.80;;;12.00;99.90;;;12.37;52.20;102358.97;4972552;28;98166;-63
2022/01/28 00:03:17;;;;;;;12.33;2.90;;;12.30;99.80;;;12.66;51.53;102359.34;4973161;28;97025;-63
2022/01/28 00:05:43;;;;;;;10.97;2.80;;;12.70;99.50;;;12.98;50.72;102360.53;4974513;28;97238;-63
2022/01/28 00:08:09;;;;;;;11.33;2.30;;;13.10;98.90;;;13.22;50.01;102373.38;4971663;28;97414;-63
2022/01/28 00:10:38;;;;;;;7.33;2.60;;;13.40;98.30;;;13.43;49.58;102381.78;4975017;28;96895;-61
2022/01/28 00:13:26;;;;;;;13.30;3.13;;;13.60;98.00;;;13.46;49.13;102377.31;4969279;28;97056;-63
2022/01/28 00:39:46;;;;;;;15.07;3.60;;;12.50;99.20;;;12.20;52.09;102442.13;4974859;28;97518;-60
2022/01/28 00:42:12;;;;;;;11.60;2.97;;;12.30;99.40;;;11.53;53.07;102457.94;4965444;28;97380;-62
2022/01/28 00:44:39;;;;;;;10.27;2.23;;;11.90;99.20;;;11.13;54.43;102468.91;4975618;28;97297;-63
2022/01/28 00:47:05;;;;;;;9.17;2.30;;;11.50;99.90;;;11.09;54.37;102475.09;4974841;28;98220;-61
2022/01/28 00:49:31;;;;;;;10.30;2.80;;;11.40;99.90;;;10.88;55.14;102473.53;4971624;28;103799;-62
2022/01/28 00:51:57;;;;;;;9.73;2.60;;;11.30;99.90;;;11.37;54.79;102482.78;4971502;28;97606;-62
2022/01/28 00:54:23;;;;;;;8.47;2.67;;;11.50;99.90;;;11.51;53.93;102483.50;4978061;28;96941;-63
2022/01/28 00:56:49;;;;;;;11.63;3.07;;;11.60;99.90;;;11.59;54.14;102479.91;4980065;28;99036;-62
2022/01/28 00:59:16;;;;;;;10.10;2.30;;;11.70;99.90;;;11.28;53.89;102478.44;4967613;28;99052;-62
2022/01/28 01:01:42;;;;;;;6.50;2.57;;;11.50;99.90;;;11.62;52.99;102489.56;4974808;28;97730;-60
2022/01/28 01:04:08;;;;;;;14.17;3.13;;;11.60;99.90;;;11.57;52.98;102486.97;4975282;28;97446;-62
2022/01/28 01:06:34;;;;;;;10.13;2.50;;;11.70;99.90;;;11.47;53.82;102495.00;4974895;28;97355;-60
2022/01/28 01:09:00;;;;;;;8.97;2.47;;;11.50;99.90;;;11.49;53.43;102491.44;4975934;28;102924;-62
2022/01/28 01:11:27;;;;;;;10.27;2.90;;;11.60;99.90;;;11.74;53.54;102493.84;4970470;28;98139;-62
2022/01/28 01:13:54;;;;;;;11.67;2.50;;;11.70;99.90;;;11.79;52.48;102497.31;4959144;28;99067;-62
2022/01/28 01:16:38;;;;;;;10.70;2.67;;;11.80;99.70;;;11.96;51.35;102505.94;4969582;28;97107;-63
2022/01/28 01:19:17;;;;;;;12.30;2.87;;;12.00;99.20;;;11.92;51.84;102514.81;4966452;28;96963;-62
2022/01/28 01:21:44;;;;;;;11.17;2.30;;;11.90;99.30;;;11.91;52.33;102515.69;4972837;28;97607;-61
2022/01/28 01:24:19;;;;;;;14.57;2.20;;;11.90;99.90;;;11.96;51.14;102511.22;4973121;28;97175;-62
2022/01/28 01:26:45;;;;;;;15.23;3.53;;;12.00;99.20;;;11.77;53.00;102515.81;4972974;28;96938;-61
2022/01/28 01:29:13;;;;;;;13.50;3.10;;;11.70;99.90;;;11.80;52.40;102531.69;4971419;28;97887;-61
2022/01/28 01:31:42;;;;;;;7.50;2.30;;;11.70;99.80;;;11.80;52.76;102533.44;4976907;28;96733;-60
2022/01/28 01:36:37;;;;;;;8.13;2.40;;;12.00;99.60;;;12.06;51.94;102539.31;4974568;28;97634;-61
2022/01/28 01:39:04;;;;;;;13.00;2.60;;;12.00;99.20;;;12.18;51.82;102539.19;4969434;28;97085;-63
2022/01/28 01:41:38;;;;;;;7.93;2.40;;;12.20;99.60;;;12.16;51.34;102537.44;4974497;28;96902;-62
2022/01/28 01:44:09;;;;;;;11.57;2.73;;;12.20;98.90;;;12.00;52.04;102544.66;4963284;28;97153;-61
2022/01/28 01:47:00;;;;;;;8.97;2.43;;;12.00;99.30;;;11.95;50.71;102541.22;4975880;28;97648;-62
2022/01/28 01:52:10;;;;;;;9.50;2.73;;;11.90;99.90;;;12.17;50.86;102540.06;4974762;28;98038;-62
2022/01/28 01:54:41;;;;;;;14.30;2.70;;;12.20;98.70;;;12.36;51.28;102539.84;4973152;28;97508;-62
2022/01/28 01:57:11;;;;;;;13.20;2.97;;;12.30;98.90;;;12.34;51.09;102539.84;4974472;28;96841;-62
2022/01/28 01:59:39;;;;;;;11.93;2.83;;;12.30;99.00;;;12.37;50.22;102538.94;4973137;28;98819;-60
2022/01/28 02:02:06;;;;;;;10.37;2.70;;;12.30;98.50;;;12.41;51.06;102535.34;4973662;28;98011;-61
2022/01/28 02:04:32;;;;;;;11.97;2.90;;;12.30;99.10;;;12.42;50.88;102537.09;4968637;28;97497;-62
2022/01/28 02:06:59;;;;;;;13.37;2.90;;;12.30;99.10;;;12.44;49.27;102536.19;4975844;28;97008;-63
2022/01/28 02:09:26;;;;;;;8.67;2.73;;;12.40;97.60;;;12.49;50.73;102538.78;4965890;28;97360;-62
2022/01/28 02:11:52;;;;;;;12.80;2.73;;;12.30;98.70;;;12.43;50.29;102538.84;4977522;28;97571;-63
2022/01/28 02:14:18;;;;;;;12.93;2.80;;;12.30;98.30;;;12.45;50.55;102537.06;4964040;28;97297;-63
2022/01/28 02:16:44;;;;;;;10.73;2.70;;;12.30;98.50;;;12.29;50.77;102535.50;4973843;28;97503;-63
2022/01/28 02:19:10;;;;;;;11.23;2.93;;;12.10;98.50;;;12.33;50.38;102547.81;4973728;28;97454;-59
2022/01/28 02:21:46;;;;;;;11.63;2.67;;;12.20;98.80;;;12.07;49.42;102561.34;4952051;28;116555;-59
2022/01/28 02:24:15;;;;;;;9.77;2.37;;;12.10;97.70;;;12.03;49.71;102565.81;4973826;28;97440;-59
2022/01/28 02:26:41;;;;;;;17.83;2.97;;;12.10;98.10;;;11.96;49.92;102574.69;4970681;28;96948;-59
2022/01/28 02:29:12;;;;;;;13.23;2.87;;;11.90;98.20;;;12.02;51.49;102574.66;4974916;28;97520;-60
2022/01/28 02:31:38;;;;;;;11.50;2.53;;;12.00;98.80;;;11.77;50.71;102579.28;4971639;28;97205;-61
2022/01/28 02:34:06;;;;;;;8.27;2.47;;;11.80;98.50;;;11.90;49.87;102577.41;4972189;28;97065;-61
2022/01/28 02:36:32;;;;;;;12.27;2.60;;;11.90;98.10;;;11.82;51.13;102589.84;4973876;28;97161;-60
2022/01/28 02:38:59;;;;;;;7.97;2.73;;;11.80;98.60;;;11.81;51.74;102590.72;4973199;28;97348;-61
2022/01/28 02:41:29;;;;;;;11.30;3.13;;;11.80;99.20;;;11.82;50.48;102603.06;4978375;28;97563;-60
2022/01/28 02:44:09;;;;;;;12.53;2.70;;;11.90;98.20;;;11.09;51.53;102593.09;4968189;28;97271;-64
2022/01/28 02:46:38;;;;;;;11.83;2.77;;;11.40;98.60;;;11.14;52.52;102597.47;4968666;28;97275;-59
2022/01/28 02:49:08;;;;;;;10.47;2.50;;;11.20;99.40;;;11.05;51.96;102594.00;4965119;28;98178;-58
2022/01/28 02:51:34;;;;;;;13.87;2.83;;;11.20;98.80;;;11.55;52.85;102590.94;4970094;28;98386;-59
2022/01/28 02:54:11;;;;;;;9.87;2.30;;;11.60;99.90;;;11.69;52.28;102590.81;4968226;28;97225;-60
2022/01/28 02:56:39;;;;;;;14.00;2.83;;;11.70;99.30;;;11.60;51.56;102592.66;4972999;28;97172;-62
2022/01/28 02:59:06;;;;;;;13.20;3.20;;;11.70;99.10;;;11.54;51.09;102595.34;4972225;28;97374;-59
2022/01/28 03:01:32;;;;;;;10.40;2.47;;;11.60;98.50;;;11.56;50.44;102596.22;4983001;28;97113;-62
2022/01/28 03:04:01;;;;;;;12.47;2.73;;;11.60;98.20;;;11.73;50.61;102608.44;4973875;28;96805;-60
2022/01/28 03:06:27;;;;;;;11.30;2.90;;;11.70;98.40;;;11.79;50.48;102608.38;4976801;28;97461;-61
2022/01/28 03:09:06;;;;;;;10.43;2.67;;;11.80;98.40;;;11.90;51.60;102606.53;4974043;28;97195;-62
2022/01/28 03:14:34;;;;;;;9.73;2.70;;;11.90;98.50;;;12.13;50.34;102617.72;4972541;28;98021;-60
2022/01/28 03:17:48;;;;;;;11.80;2.60;;;12.10;97.80;;;12.30;50.38;102606.97;4969783;28;97785;-61
2022/01/28 03:19:51;;;;;;;11.60;2.70;;;12.20;98.60;;;12.42;49.69;102611.19;4971512;28;99298;-62
2022/01/28 03:22:17;;;;;;;9.70;2.10;;;12.40;98.00;;;12.06;48.81;102616.03;4965595;28;97168;-59
2022/01/28 03:24:46;;;;;;;12.87;2.70;;;12.20;97.10;;;12.09;48.58;102608.06;4967254;28;96749;-60
2022/01/28 03:27:20;;;;;;;15.47;3.00;;;12.10;96.90;;;12.18;50.58;102607.97;4966726;28;96835;-59
2022/01/28 03:29:45;;;;;;;12.77;2.60;;;12.10;98.50;;;12.33;50.19;102617.50;4947091;28;99472;-59
2022/01/28 03:32:11;;;;;;;10.00;3.13;;;12.30;98.30;;;12.19;49.97;102620.31;4969768;28;117505;-58
2022/01/28 03:34:37;;;;;;;14.63;3.07;;;12.20;97.60;;;12.08;49.18;102627.47;4979284;28;96805;-59
2022/01/28 03:37:05;;;;;;;12.67;2.90;;;12.10;97.50;;;12.12;49.65;102638.91;4970068;28;96977;-62
2022/01/28 03:39:31;;;;;;;11.40;2.90;;;11.90;97.90;;;12.02;49.74;102643.44;4973371;28;97591;-60
2022/01/28 03:41:57;;;;;;;12.57;3.10;;;11.90;98.10;;;11.81;50.75;102640.97;4967705;28;97356;-62
2022/01/28 03:44:22;;;;;;;12.30;3.17;;;11.80;98.40;;;11.45;51.18;102650.94;4978471;28;97063;-61
2022/01/28 03:46:48;;;;;;;14.73;3.73;;;11.50;98.50;;;11.43;51.16;102652.72;4976223;28;108386;-61
2022/01/28 03:49:14;;;;;;;12.53;2.77;;;11.40;98.40;;;11.31;52.39;102642.25;4969390;28;98511;-59
2022/01/28 03:51:40;;;;;;;8.63;2.20;;;11.20;99.40;;;11.39;51.02;102658.03;4964734;28;97446;-60
2022/01/28 03:54:05;;;;;;;10.67;3.43;;;11.40;98.60;;;11.45;51.59;102660.66;4964493;28;97093;-61
2022/01/28 03:56:31;;;;;;;13.57;2.63;;;11.40;98.70;;;11.24;51.15;102666.94;4975777;28;96903;-61
2022/01/28 03:58:57;;;;;;;9.70;2.30;;;11.30;98.70;;;11.25;51.90;102663.41;4968141;28;98473;-60
2022/01/28 04:01:29;;;;;;;10.10;2.13;;;11.20;99.30;;;11.25;51.06;102661.66;4963285;28;105548;-61
2022/01/28 04:11:52;;;;;;;8.83;2.87;;;11.10;98.90;;;11.03;52.38;102689.97;4981475;28;96882;-59
2022/01/28 04:19:37;;;;;;;8.73;2.23;;;10.80;99.80;;;11.03;51.69;102695.25;4967193;28;101632;-61
2022/01/28 04:22:04;;;;;;;11.57;2.50;;;11.00;99.20;;;11.27;51.32;102703.91;4972703;28;97253;-62
2022/01/28 04:24:30;;;;;;;14.13;3.00;;;11.20;98.70;;;11.31;52.03;102710.94;4977012;28;97524;-61
2022/01/28 04:26:55;;;;;;;13.73;2.87;;;11.20;99.80;;;11.23;52.04;102707.47;4977025;28;102466;-64
2022/01/28 04:29:21;;;;;;;12.23;2.67;;;11.20;99.00;;;11.29;51.19;102707.44;4972841;28;114027;-61
2022/01/28 04:31:48;;;;;;;10.37;2.47;;;11.20;98.70;;;11.58;51.75;102697.56;4979143;28;101817;-62
2022/01/28 04:34:15;;;;;;;7.73;2.20;;;11.50;99.30;;;11.29;51.76;102712.72;4975412;28;97467;-62
2022/01/28 04:36:56;;;;;;;9.87;3.17;;;11.30;98.70;;;11.45;51.30;102703.81;4973756;28;97319;-62
2022/01/28 04:39:34;;;;;;;10.20;2.13;;;11.40;99.20;;;11.32;51.76;102696.84;4974465;28;100695;-62
2022/01/28 04:45:05;;;;;;;10.50;2.70;;;11.40;98.40;;;11.33;52.05;102703.88;4966342;28;96874;-61
2022/01/28 04:48:05;;;;;;;10.20;3.00;;;11.30;98.90;;;11.31;50.48;102716.22;4974211;28;97432;-61
2022/01/28 05:00:51;;;;;;;12.10;2.97;;;11.70;98.50;;;11.85;50.78;102735.25;4979299;28;99294;-61
2022/01/28 05:09:00;;;;;;;12.43;2.73;;;11.50;98.20;;;11.37;52.17;102737.31;4971874;28;97235;-62
2022/01/28 05:27:35;;;;;;;11.53;3.30;;;11.80;97.80;;;12.06;50.42;102747.44;4976614;28;96971;-59
2022/01/28 05:30:01;;;;;;;12.50;3.07;;;11.70;98.50;;;11.98;50.61;102741.31;4972553;28;97539;-61
2022/01/28 05:32:27;;;;;;;11.77;3.00;;;11.70;99.00;;;12.15;50.26;102749.97;4977284;28;96860;-61
2022/01/28 05:34:53;;;;;;;11.93;3.03;;;11.90;98.50;;;11.99;49.47;102754.53;4976247;28;106397;-61
2022/01/28 05:37:19;;;;;;;13.27;2.80;;;11.70;97.90;;;11.89;50.16;102748.44;4965514;28;97380;-62
2022/01/28 05:39:45;;;;;;;15.33;3.10;;;11.60;98.20;;;11.93;49.65;102744.00;4973594;28;97345;-61
2022/01/28 05:42:10;;;;;;;15.83;3.17;;;11.70;98.00;;;11.82;50.95;102753.78;4975047;28;97277;-61
2022/01/28 05:44:36;;;;;;;15.23;2.90;;;11.60;98.50;;;11.82;51.33;102751.16;4974818;28;100021;-58
2022/01/28 05:47:03;;;;;;;9.40;2.30;;;11.50;99.30;;;11.75;51.28;102760.00;4969734;28;97594;-61
2022/01/28 05:49:30;;;;;;;10.40;2.83;;;11.40;99.30;;;11.81;51.02;102775.84;4975872;28;97087;-61
2022/01/28 05:51:56;;;;;;;11.33;2.90;;;11.40;99.70;;;11.88;50.19;102762.56;4957978;28;98579;-65
2022/01/28 05:54:22;;;;;;;9.27;2.90;;;11.60;98.40;;;11.75;49.84;102776.72;4976626;28;97178;-59
2022/01/28 05:56:48;;;;;;;12.10;3.00;;;11.50;98.00;;;11.67;49.09;102782.94;4959209;28;97517;-62
2022/01/28 05:59:14;;;;;;;10.77;3.07;;;11.40;97.80;;;11.61;50.51;102790.03;4972828;28;110362;-61
2022/01/28 06:01:40;;;;;;;13.40;3.10;;;11.30;98.70;;;11.82;50.86;102788.16;4974011;28;101617;-60
2022/01/28 06:04:05;;;;;;;6.43;2.27;;;11.60;99.00;;;11.90;50.49;102775.78;4964946;28;111960;-60
2022/01/28 06:06:32;;;;;;;10.73;2.53;;;11.70;98.20;;;11.71;50.75;102779.38;4975384;28;97441;-59
2022/01/28 06:08:58;;;;;;;11.73;2.93;;;11.40;98.60;;;11.93;50.67;102775.75;4973646;28;97411;-61
2022/01/28 06:11:25;;;;;;;12.10;2.83;;;11.70;98.50;;;11.73;50.44;102799.66;4970679;28;109202;-61
2022/01/28 06:13:52;;;;;;;16.03;3.43;;;11.50;98.60;;;11.58;49.87;102800.66;4976345;28;97584;-62
2022/01/28 06:16:18;;;;;;;10.33;2.97;;;11.40;98.10;;;11.50;50.20;102796.28;4969258;28;97490;-58
2022/01/28 06:18:45;;;;;;;9.43;2.97;;;11.30;98.50;;;11.57;51.16;102801.53;4973973;28;97058;-61
2022/01/28 06:21:11;;;;;;;11.33;3.00;;;11.40;98.60;;;11.37;49.98;102811.31;4966297;28;97292;-61
2022/01/28 06:23:37;;;;;;;14.93;3.30;;;11.20;98.60;;;11.48;51.28;102809.50;4976489;28;97127;-60
2022/01/28 06:26:04;;;;;;;10.20;3.33;;;11.20;99.20;;;11.10;50.71;102822.00;4960218;28;97306;-62
2022/01/28 06:28:31;;;;;;;12.43;3.43;;;10.90;98.30;;;11.33;49.69;102826.31;4970855;28;98961;-62
2022/01/28 06:30:56;;;;;;;12.30;2.83;;;11.10;99.00;;;11.42;51.55;102830.66;4962057;28;96615;-64
2022/01/28 06:33:22;;;;;;;11.73;3.50;;;11.20;99.10;;;11.37;50.07;102819.25;4971439;28;115621;-62
2022/01/28 06:35:49;;;;;;;9.97;3.07;;;11.20;98.40;;;11.59;50.44;102828.84;4958904;28;97337;-61
2022/01/28 06:38:15;;;;;;;11.13;3.33;;;11.40;98.20;;;11.61;49.54;102837.63;4971814;28;97883;-59
2022/01/28 06:40:42;;;;;;;13.53;3.00;;;11.30;98.20;;;11.52;50.77;102839.44;4969506;28;97344;-62
2022/01/28 06:43:13;;;;;;;12.83;3.13;;;11.30;99.00;;;11.78;50.84;102844.59;4962980;28;99070;-61
2022/01/28 06:45:42;;;;;;;12.60;3.10;;;11.60;98.20;;;11.82;50.56;102846.34;4970886;28;96853;-61
2022/01/28 06:48:11;;;;;;;14.33;3.30;;;11.50;98.10;;;11.97;50.43;102846.25;4966952;28;96853;-62
2022/01/28 06:50:42;;;;;;;11.00;2.90;;;11.60;98.70;;;12.05;49.85;102846.22;4971409;28;97234;-62
2022/01/28 06:53:11;;;;;;;16.47;3.83;;;11.70;97.60;;;12.15;50.25;102846.13;4964542;28;98220;-61
2022/01/28 06:55:38;;;;;;;13.43;3.93;;;11.70;99.00;;;12.18;49.87;102846.09;4973066;28;98189;-60
2022/01/28 06:58:05;;;;;;;19.37;4.17;;;11.70;98.50;;;12.34;48.84;102841.56;4965620;28;97140;-60
2022/01/28 07:00:37;;;;;;;12.03;3.53;;;11.90;97.80;;;12.20;49.43;102839.03;4970547;28;96950;-60
2022/01/28 07:03:16;;;;;;;12.37;3.10;;;11.70;98.10;;;12.36;49.83;102846.84;4968476;28;97407;-62
2022/01/28 07:05:42;;;;;;;15.67;3.57;;;11.90;98.40;;;12.43;49.51;102840.59;4956014;28;97747;-61
2022/01/28 07:08:08;;;;;;;10.10;3.33;;;12.10;98.00;;;12.48;48.25;102844.97;4955344;28;97123;-61
2022/01/28 07:10:35;;;;;;;17.10;3.70;;;12.10;97.20;;;12.03;47.58;102851.50;4964885;28;97501;-63
2022/01/28 07:13:01;;;;;;;16.47;3.57;;;11.70;96.90;;;11.87;49.45;102856.03;4962998;28;98042;-60
2022/01/28 07:15:28;;;;;;;9.53;2.97;;;11.50;98.20;;;11.80;50.33;102858.69;4965831;28;97186;-62
2022/01/28 07:18:00;;;;;;;13.17;3.30;;;11.40;98.70;;;11.61;49.37;102856.13;4962158;28;97248;-61
2022/01/28 07:20:29;;;;;;;14.70;3.70;;;11.50;97.70;;;11.59;50.20;102863.19;4944104;28;100339;-62
2022/01/28 07:22:55;;;;;;;15.60;3.70;;;11.30;98.60;;;11.78;51.25;102871.03;4974738;28;97631;-59
2022/01/28 07:25:25;;;;;;;10.10;2.93;;;11.50;99.20;;;11.73;49.20;102868.41;4973527;28;96786;-59
2022/01/28 07:27:51;;;;;;;12.30;3.47;;;11.60;97.50;;;11.72;49.97;102871.06;4971912;28;96918;-62
2022/01/28 07:30:17;;;;;;;8.77;3.37;;;11.50;98.20;;;11.38;49.65;102871.22;4971922;28;97875;-61
2022/01/28 07:32:49;;;;;;;13.10;3.33;;;11.30;98.00;;;11.24;51.85;102879.19;4970239;28;96942;-61
2022/01/28 07:35:16;;;;;;;13.17;3.70;;;11.10;99.10;;;11.39;50.42;102894.09;4966140;28;97422;-62
2022/01/28 07:37:42;;;;;;;11.60;3.67;;;11.20;99.10;;;11.49;51.93;102890.56;4955758;28;97418;-60
2022/01/28 07:40:11;;;;;;;13.93;2.70;;;11.30;99.20;;;11.54;51.33;102894.03;4973191;28;100524;-59
2022/01/28 07:42:38;;;;;;;12.43;3.60;;;11.30;99.10;;;11.41;49.67;102902.91;4969790;28;96809;-60
2022/01/28 07:45:14;;;;;;;13.73;3.47;;;11.30;97.90;;;11.45;49.71;102915.25;4969883;28;97309;-61
2022/01/28 07:47:40;;;;;;;11.10;3.53;;;11.20;98.40;;;11.57;51.13;102912.56;4967939;28;96980;-62
2022/01/28 07:50:08;;;;;;;10.27;2.97;;;11.20;98.90;;;11.58;50.44;102916.97;4967350;28;97073;-61
2022/01/28 07:52:36;;;;;;;9.97;2.93;;;11.20;98.70;;;11.61;50.86;102922.22;4962775;28;98097;-61
2022/01/28 07:55:03;;;;;;;11.83;3.60;;;11.30;98.60;;;11.83;50.96;102914.22;4940751;28;96828;-61
2022/01/28 07:57:30;;;;;;;10.67;3.70;;;11.50;99.60;;;11.94;50.84;102919.47;4963916;28;96624;-62
2022/01/28 07:59:56;;;;;;;7.77;2.73;;;11.70;99.20;;;11.96;50.38;102925.63;4958737;28;97740;-63
2022/01/28 08:02:22;;;;;;;8.00;2.07;;;11.70;98.70;;;12.03;50.60;102927.34;4971047;28;102481;-61
2022/01/28 08:04:48;;;;;;;15.00;4.13;;;11.60;98.60;;;12.07;50.39;102926.44;4970847;28;105512;-61
2022/01/28 08:07:14;;;;;;;8.87;2.67;;;11.50;98.60;;;12.06;49.34;102922.91;4948170;28;96897;-61
2022/01/28 08:09:43;;;;;;;13.97;3.60;;;11.40;98.90;;;12.11;50.33;102921.09;4986483;28;99931;-60
2022/01/28 08:12:09;;;;;;;6.00;2.07;;;11.40;98.90;;;12.19;50.21;102924.59;4967995;28;97565;-61
2022/01/28 08:14:35;;;;;;;12.07;2.60;;;11.50;99.80;;;12.28;50.21;102933.34;4967693;28;97319;-59
2022/01/28 08:17:00;;;;;;;9.93;3.27;;;11.60;98.80;;;12.34;49.66;102941.25;4965049;28;96866;-62
2022/01/28 08:19:27;;;;;;;15.23;3.43;;;11.60;98.20;;;12.44;49.67;102946.50;4969362;28;97507;-57
2022/01/28 08:21:53;;;;;;;6.90;2.17;;;11.70;98.60;;;12.42;49.65;102944.72;4969326;28;115519;-62
2022/01/28 08:24:19;;;;;;;4.57;1.40;;;11.70;98.70;;;12.38;50.00;102954.47;4966040;28;97791;-62
2022/01/28 08:26:45;;;;;;;10.03;3.37;;;11.60;99.90;;;12.19;47.51;102953.72;4972386;28;97570;-62
2022/01/28 08:29:11;;;;;;;11.80;3.77;;;11.60;97.90;;;12.06;50.03;102952.00;4961084;28;97318;-61
2022/01/28 08:31:37;;;;;;;12.93;3.40;;;11.20;99.00;;;11.98;48.51;102959.09;4968363;28;97026;-61
2022/01/28 08:34:03;;;;;;;8.20;2.17;;;11.20;99.00;;;12.07;48.96;102959.06;4971647;28;97212;-61
2022/01/28 08:36:29;;;;;;;11.87;2.90;;;11.30;99.50;;;12.10;49.88;102969.63;4971939;28;96834;-62
2022/01/28 08:38:56;;;;;;;7.13;2.50;;;11.30;98.60;;;12.12;50.64;102975.78;4974616;28;98760;-59
2022/01/28 08:41:23;;;;;;;13.97;3.90;;;11.30;99.70;;;12.08;48.88;102978.47;4968760;28;99884;-61
2022/01/28 08:43:51;;;;;;;8.40;3.10;;;11.30;99.20;;;12.04;50.43;102992.59;4972770;28;96958;-62
2022/01/28 08:46:19;;;;;;;10.40;2.97;;;11.20;99.40;;;12.09;50.28;102985.50;4966197;28;97734;-61
2022/01/28 08:48:45;;;;;;;9.97;3.13;;;11.20;99.50;;;12.08;50.54;102975.81;4960666;28;116101;-61
2022/01/28 08:51:11;;;;;;;6.07;2.27;;;11.20;99.80;;;12.10;50.30;102980.19;4972312;28;97494;-61
2022/01/28 08:53:38;;;;;;;11.13;2.87;;;11.20;99.90;;;12.09;51.05;102981.09;4965955;28;96947;-62
2022/01/28 08:56:04;;;;;;;6.43;1.87;;;11.20;99.90;;;12.11;51.01;102976.66;4959535;28;96784;-60
2022/01/28 08:58:30;;;;;;;13.00;3.63;;;11.20;99.90;;;12.08;50.74;102981.97;4989538;28;97480;-60
2022/01/28 09:00:56;;;;;;;14.10;3.70;;;11.20;99.90;;;12.12;50.73;102983.72;4976639;28;102652;-63
2022/01/28 09:03:22;;;;;;;13.83;3.83;;;11.30;99.90;;;12.24;49.91;102987.19;4973616;28;109032;-60
2022/01/28 09:05:48;;;;;;;10.13;2.80;;;11.50;99.80;;;12.38;50.47;102975.63;4979832;28;96900;-61
2022/01/28 09:08:15;;;;;;;13.33;3.97;;;11.70;99.40;;;12.16;48.93;102974.91;4971834;28;97482;-60
2022/01/28 09:10:45;;;;;;;14.13;4.40;;;11.60;99.00;;;12.07;50.64;102974.94;4976380;28;97647;-61
2022/01/28 09:13:27;;;;;;;13.53;4.50;;;11.40;99.90;;;12.13;50.84;102979.31;4969395;28;98125;-62
2022/01/28 09:15:55;;;;;;;13.37;4.80;;;11.40;99.90;;;12.06;49.76;102978.47;4973992;28;98612;-59
2022/01/28 09:18:23;;;;;;;8.90;3.20;;;11.40;99.50;;;12.31;50.56;102973.06;4972883;28;101827;-63
2022/01/28 09:20:49;;;;;;;14.53;4.70;;;11.70;99.90;;;12.36;48.26;102971.25;4973929;28;97409;-63
2022/01/28 09:23:15;;;;;;;14.30;4.63;;;11.90;98.60;;;12.24;50.60;102977.47;4974847;28;97005;-62
2022/01/28 09:25:42;;;;;;;10.03;4.53;;;11.60;99.60;;;12.41;49.95;102978.25;4972777;28;96978;-62
2022/01/28 09:28:09;;;;;;;13.27;4.30;;;11.80;99.50;;;12.45;49.38;102981.78;4975056;28;98653;-63
2022/01/28 09:30:36;;;;;;;15.80;5.30;;;11.90;98.90;;;12.40;50.05;102983.56;4970714;28;97011;-63
2022/01/28 09:33:03;;;;;;;11.87;4.17;;;11.80;99.20;;;12.49;49.87;102983.50;4969610;28;98204;-62
2022/01/28 09:35:29;;;;;;;10.57;3.23;;;12.00;99.20;;;12.37;50.11;102994.16;4975719;28;96988;-63
2022/01/28 09:37:55;;;;;;;15.33;4.73;;;11.80;99.10;;;12.24;50.29;103003.06;4970256;28;100350;-63
2022/01/28 09:40:21;;;;;;;11.70;5.00;;;11.60;99.70;;;12.44;49.42;103006.47;4966383;28;103429;-63
2022/01/28 09:42:48;;;;;;;15.30;4.83;;;11.80;99.20;;;12.60;49.48;103008.16;4969645;28;97213;-60
2022/01/28 09:45:21;;;;;;;10.97;4.00;;;12.10;98.60;;;12.48;48.86;103005.59;4967115;28;97257;-61
2022/01/28 09:47:51;;;;;;;15.20;4.70;;;12.10;98.40;;;12.69;47.81;103013.38;4972549;28;98554;-61
2022/01/28 09:50:18;;;;;;;14.03;4.80;;;12.40;97.80;;;12.76;49.46;103009.78;4971629;28;97634;-60
2022/01/28 09:52:44;;;;;;;14.97;4.93;;;12.50;98.60;;;12.71;47.72;103016.88;4975190;28;97336;-60
2022/01/28 09:55:12;;;;;;;13.83;4.93;;;12.40;97.40;;;12.89;49.12;103022.94;4974484;28;107954;-59
2022/01/28 09:57:38;;;;;;;15.87;5.07;;;12.50;98.10;;;12.89;48.76;103017.66;4974867;28;97594;-57
2022/01/28 10:00:05;;;;;;;17.93;5.73;;;12.60;97.90;;;12.80;48.59;103011.53;4973506;28;116463;-60
2022/01/28 10:03:02;;;;;;;11.73;5.40;;;12.40;97.90;;;12.58;49.30;103012.56;4971657;28;96907;-60
2022/01/28 10:05:34;;;;;;;12.07;5.17;;;12.10;98.30;;;12.68;49.38;103006.31;4972396;28;96983;-60
2022/01/28 10:08:17;;;;;;;13.17;5.30;;;12.20;98.80;;;12.49;50.19;103010.88;4969515;28;97959;-60
2022/01/28 10:11:10;;;;;;;15.40;5.83;;;12.00;99.40;;;12.20;49.78;103021.63;4968572;28;97145;-60
2022/01/28 10:13:49;;;;;;;13.77;5.53;;;11.80;99.20;;;12.26;50.56;103028.63;4969665;28;96780;-61
2022/01/28 10:16:24;;;;;;;17.07;5.40;;;11.80;99.30;;;12.29;49.36;103028.59;4974090;28;96915;-59
2022/01/28 10:18:59;;;;;;;20.87;6.53;;;12.00;98.50;;;12.12;50.19;103030.47;4974746;28;97632;-60
2022/01/28 10:21:44;;;;;;;13.67;5.50;;;12.00;98.50;;;12.38;49.85;103039.16;4966034;28;101819;-61
2022/01/28 10:24:24;;;;;;;13.47;5.17;;;12.30;98.70;;;12.05;49.50;103034.03;4966007;28;97562;-61
2022/01/28 10:27:09;;;;;;;15.23;5.43;;;12.00;98.10;;;11.99;50.67;103034.91;4978681;28;97494;-60
2022/01/28 10:29:42;;;;;;;17.80;5.90;;;11.80;99.00;;;11.98;51.10;103038.47;4962102;28;101759;-60
2022/01/28 10:32:14;;;;;;;13.83;5.90;;;11.70;99.30;;;11.96;51.48;103034.94;4956739;28;97542;-61
2022/01/28 10:34:51;;;;;;;12.23;5.07;;;11.80;99.70;;;11.82;49.96;103032.34;4968467;28;97426;-58
2022/01/28 10:37:29;;;;;;;16.40;5.40;;;11.90;98.10;;;11.56;51.67;103024.44;4971588;28;98846;-60
2022/01/28 10:40:09;;;;;;;13.30;4.73;;;11.60;98.70;;;11.47;51.36;103029.78;4972128;28;96886;-61
2022/01/28 10:42:49;;;;;;;15.70;5.70;;;11.60;98.70;;;11.45;52.26;103031.53;4967925;28;100005;-62
2022/01/28 10:45:20;;;;;;;17.23;5.63;;;11.40;99.70;;;11.74;50.96;103026.19;4971096;28;97663;-62
2022/01/28 10:47:53;;;;;;;14.43;5.37;;;11.70;98.80;;;11.86;51.35;103017.34;4972820;28;96870;-62
2022/01/28 10:50:38;;;;;;;18.43;4.77;;;11.80;99.30;;;11.68;50.09;103027.94;4972163;28;97153;-63
2022/01/28 10:53:15;;;;;;;14.07;5.27;;;11.70;98.40;;;11.90;51.15;103017.34;4970704;28;97760;-62
2022/01/28 10:55:50;;;;;;;17.20;5.97;;;11.80;98.60;;;12.06;50.95;103017.28;4976322;28;97063;-62
2022/01/28 10:58:22;;;;;;;15.30;4.93;;;12.00;98.60;;;12.30;50.19;103024.22;4969578;28;96914;-63
2022/01/28 11:00:53;;;;;;;14.93;4.53;;;12.30;98.40;;;12.47;49.96;103017.06;4975109;28;96817;-62
2022/01/28 11:03:26;;;;;;;12.60;4.63;;;12.50;98.40;;;12.49;48.90;103021.44;4969803;28;97276;-62
2022/01/28 11:06:02;;;;;;;16.00;4.53;;;12.50;96.80;;;12.08;49.19;103013.72;4971052;28;97476;-62
2022/01/28 11:08:34;;;;;;;21.77;4.80;;;12.00;97.50;;;12.03;50.08;103015.53;4972680;28;96783;-62
2022/01/28 11:11:01;;;;;;;11.17;3.73;;;11.80;97.90;;;12.28;48.50;103021.56;4967855;28;98143;-62
2022/01/28 11:13:28;;;;;;;10.87;4.17;;;12.10;97.80;;;12.31;50.03;103015.41;4968515;28;97648;-63
2022/01/28 11:15:55;;;;;;;11.90;4.33;;;12.10;98.50;;;12.18;48.96;103026.03;4972886;28;97114;-63
2022/01/28 11:18:23;;;;;;;17.37;5.40;;;12.10;97.60;;;12.38;50.29;103027.69;4952756;28;97613;-62
2022/01/28 11:21:06;;;;;;;14.27;4.53;;;12.20;98.30;;;12.30;48.79;103027.75;4969266;28;97606;-62
2022/01/28 11:23:54;;;;;;;16.33;4.50;;;12.30;97.60;;;12.36;49.35;103024.19;4965563;28;100110;-63
2022/01/28 11:26:44;;;;;;;15.33;4.63;;;12.30;97.70;;;12.31;48.41;103026.88;4965201;28;97304;-62
2022/01/28 11:29:28;;;;;;;12.77;4.27;;;12.30;97.50;;;12.20;48.93;103029.56;4971693;28;97248;-61
2022/01/28 11:32:14;;;;;;;10.83;3.90;;;12.10;97.80;;;12.31;50.13;103020.69;4974830;28;98213;-61
2022/01/28 11:35:02;;;;;;;16.63;4.47;;;12.20;98.30;;;12.19;48.09;103038.38;4968856;28;101560;-62